Time;durP1;ratioP1;P1;durP2;ratioP2;P2;SDS_P1;SDS_P2;PMS_P1;PMS_P2;Temp;Humidity;BMP_temperature;BMP_pressure;BME280_temperature;BME280_humidity;BME280_pressure;Samples;Min_cycle;Max_cycle;Signal;HPM_P1;HPM_P2
2021/04/20 00:01:33;;;;;;;28.48;17.33;;;7.50;99.90;;;;;;5031421;28;20068;-49
2021/04/20 00:03:58;;;;;;;28.27;17.13;;;7.50;99.90;;;;;;5030285;28;20032;-50
2021/04/20 00:06:24;;;;;;;28.83;16.98;;;7.40;99.90;;;;;;5031583;28;20034;-48
2021/04/20 00:08:49;;;;;;;26.70;16.95;;;7.40;99.90;;;;;;5030784;28;20398;-46
2021/04/20 00:11:15;;;;;;;22.92;15.13;;;7.40;99.90;;;;;;5031390;28;20052;-48
2021/04/20 00:13:40;;;;;;;23.23;15.20;;;7.30;99.90;;;;;;5030840;28;20472;-50
2021/04/20 00:16:06;;;;;;;26.23;15.80;;;7.30;99.90;;;;;;5030347;28;20071;-49
2021/04/20 00:18:31;;;;;;;25.13;15.48;;;7.30;99.90;;;;;;5030469;28;20368;-47
2021/04/20 00:20:57;;;;;;;23.40;16.08;;;7.30;99.90;;;;;;5030884;28;20517;-47
2021/04/20 00:23:22;;;;;;;24.10;15.27;;;7.20;99.90;;;;;;5031074;28;20032;-48
2021/04/20 00:25:48;;;;;;;22.63;13.65;;;7.20;99.90;;;;;;5030856;28;20025;-50
2021/04/20 00:28:22;;;;;;;22.08;15.07;;;7.20;99.90;;;;;;5030052;28;20502;-47
2021/04/20 00:30:48;;;;;;;17.70;12.60;;;7.10;99.90;;;;;;5030849;28;20052;-48
2021/04/20 00:33:13;;;;;;;19.17;13.02;;;7.10;99.90;;;;;;5030769;28;20029;-47
2021/04/20 00:35:39;;;;;;;21.92;13.50;;;7.00;99.90;;;;;;5030613;28;20021;-47
2021/04/20 00:38:04;;;;;;;24.00;14.63;;;7.10;99.90;;;;;;5030179;28;20029;-49
2021/04/20 00:40:30;;;;;;;23.90;14.40;;;7.00;99.90;;;;;;5030340;28;20280;-50
2021/04/20 00:42:57;;;;;;;21.55;14.02;;;6.90;99.90;;;;;;5030466;28;20480;-48
2021/04/20 00:45:25;;;;;;;20.42;13.20;;;6.90;99.90;;;;;;5030724;28;20503;-48
2021/04/20 00:47:51;;;;;;;22.92;13.68;;;6.90;99.90;;;;;;5029793;28;20059;-48
2021/04/20 00:50:18;;;;;;;22.77;14.13;;;6.90;99.90;;;;;;5030497;28;20021;-45
2021/04/20 00:52:44;;;;;;;20.05;13.38;;;6.90;99.90;;;;;;5030524;28;20033;-48
2021/04/20 00:55:10;;;;;;;19.17;12.07;;;6.90;99.90;;;;;;5030425;28;20029;-48
2021/04/20 00:57:35;;;;;;;19.63;12.88;;;6.80;99.90;;;;;;5029406;28;20031;-47
2021/04/20 01:00:04;;;;;;;18.92;12.20;;;6.80;99.90;;;;;;5030765;28;20371;-47
2021/04/20 01:02:29;;;;;;;21.85;13.15;;;6.70;99.90;;;;;;5030200;28;20649;-47
2021/04/20 01:04:55;;;;;;;20.80;12.65;;;6.70;99.90;;;;;;5030143;28;20029;-48
2021/04/20 01:07:21;;;;;;;16.17;11.65;;;6.70;99.90;;;;;;5029695;28;20034;-47
2021/04/20 01:09:48;;;;;;;20.92;12.95;;;6.70;99.90;;;;;;5029846;28;20025;-47
2021/04/20 01:12:14;;;;;;;20.63;12.65;;;6.70;99.90;;;;;;5029866;28;20034;-47
2021/04/20 01:14:40;;;;;;;22.17;13.18;;;6.70;99.90;;;;;;5028580;28;20111;-47
2021/04/20 01:17:05;;;;;;;20.73;13.73;;;6.70;99.90;;;;;;5030231;28;21143;-47
2021/04/20 01:19:32;;;;;;;23.52;14.27;;;6.70;99.90;;;;;;5029484;28;20029;-47
2021/04/20 01:21:59;;;;;;;29.33;16.23;;;6.70;99.90;;;;;;5029925;28;20044;-47
2021/04/20 01:24:26;;;;;;;23.23;15.25;;;6.70;99.90;;;;;;5030159;28;20040;-47
2021/04/20 01:26:52;;;;;;;27.63;16.40;;;6.70;99.90;;;;;;5030060;28;20099;-46
2021/04/20 01:29:20;;;;;;;28.95;15.98;;;6.70;99.90;;;;;;5029009;28;20104;-47
2021/04/20 01:31:46;;;;;;;24.35;15.75;;;6.70;99.90;;;;;;5028318;28;20029;-47
2021/04/20 01:34:13;;;;;;;28.52;17.63;;;6.60;99.90;;;;;;5028662;28;20498;-48
2021/04/20 01:36:38;;;;;;;23.60;15.57;;;6.60;99.90;;;;;;5029952;28;20553;-47
2021/04/20 01:39:06;;;;;;;27.23;14.30;;;6.60;99.90;;;;;;5029407;28;20026;-50
2021/04/20 01:41:33;;;;;;;26.58;14.80;;;6.60;99.90;;;;;;5028428;28;20280;-48
2021/04/20 01:43:59;;;;;;;21.90;14.27;;;6.60;99.90;;;;;;5029655;28;20045;-50
2021/04/20 01:46:25;;;;;;;20.35;12.05;;;6.50;99.90;;;;;;5030001;28;20026;-48
2021/04/20 01:48:51;;;;;;;20.15;12.98;;;6.50;99.90;;;;;;5029038;28;20064;-47
2021/04/20 01:51:19;;;;;;;20.73;13.23;;;6.50;99.90;;;;;;5029481;28;20056;-49
2021/04/20 01:53:45;;;;;;;18.02;13.05;;;6.50;99.90;;;;;;5029167;28;20526;-48
2021/04/20 01:56:12;;;;;;;22.17;13.20;;;6.50;99.90;;;;;;5029254;28;20060;-48
2021/04/20 01:58:40;;;;;;;21.98;12.05;;;6.40;99.90;;;;;;5028186;28;20035;-48
2021/04/20 02:01:11;;;;;;;19.52;12.90;;;6.40;99.90;;;;;;5027808;28;20116;-47
2021/04/20 02:03:37;;;;;;;16.85;11.73;;;6.40;99.90;;;;;;5029032;28;20029;-47
2021/04/20 02:06:06;;;;;;;19.50;11.80;;;6.40;99.90;;;;;;5027745;28;20087;-48
2021/04/20 02:08:32;;;;;;;17.63;11.50;;;6.40;99.90;;;;;;5027040;28;20017;-50
2021/04/20 02:11:01;;;;;;;16.98;11.35;;;6.30;99.90;;;;;;5029067;28;20459;-49
2021/04/20 02:13:27;;;;;;;20.75;11.90;;;6.40;99.90;;;;;;5028315;28;20025;-49
2021/04/20 02:15:54;;;;;;;18.98;11.40;;;6.30;99.90;;;;;;5028207;28;20049;-50
2021/04/20 02:18:23;;;;;;;20.95;12.02;;;6.30;99.90;;;;;;5027527;28;20087;-47
2021/04/20 02:20:50;;;;;;;18.13;11.65;;;6.30;99.90;;;;;;5025517;28;20033;-48
2021/04/20 02:23:16;;;;;;;16.13;10.30;;;6.30;99.90;;;;;;5028077;28;20072;-47
2021/04/20 02:25:44;;;;;;;15.60;10.60;;;6.30;99.90;;;;;;5027246;28;20499;-47
2021/04/20 02:28:10;;;;;;;19.60;11.45;;;6.20;99.90;;;;;;5027114;28;20018;-48
2021/04/20 02:30:37;;;;;;;17.50;10.57;;;6.20;99.90;;;;;;5028263;28;20391;-47
2021/04/20 02:33:03;;;;;;;20.77;10.80;;;6.20;99.90;;;;;;5028334;28;20276;-47
2021/04/20 02:35:31;;;;;;;15.50;10.40;;;6.20;99.90;;;;;;5028587;28;20036;-48
2021/04/20 02:37:56;;;;;;;18.58;10.23;;;6.20;99.90;;;;;;5026046;28;20033;-47
2021/04/20 02:40:25;;;;;;;17.02;10.43;;;6.10;99.90;;;;;;5028475;28;20611;-47
2021/04/20 02:42:52;;;;;;;15.38;9.73;;;6.10;99.90;;;;;;5027201;28;20021;-49
2021/04/20 02:45:20;;;;;;;16.08;10.00;;;6.00;99.90;;;;;;5028613;28;20028;-46
2021/04/20 02:47:46;;;;;;;22.02;10.32;;;6.00;99.90;;;;;;5028148;28;20049;-46
2021/04/20 02:50:20;;;;;;;18.60;10.27;;;6.00;99.90;;;;;;5028480;28;20502;-47
2021/04/20 02:52:50;;;;;;;17.48;9.95;;;5.90;99.90;;;;;;5028116;28;20026;-47
2021/04/20 02:55:18;;;;;;;15.10;10.18;;;5.90;99.90;;;;;;5021179;28;20388;-46
2021/04/20 02:57:48;;;;;;;18.63;12.32;;;5.90;99.90;;;;;;5027526;28;20407;-47
2021/04/20 03:00:20;;;;;;;18.60;10.87;;;5.90;99.90;;;;;;5028812;28;20018;-47
2021/04/20 03:02:52;;;;;;;18.73;11.45;;;5.80;99.90;;;;;;5027257;28;20108;-47
2021/04/20 03:05:19;;;;;;;20.77;11.30;;;5.80;99.90;;;;;;5028403;28;20160;-47
2021/04/20 03:07:47;;;;;;;17.33;12.15;;;5.70;99.90;;;;;;5027921;28;20028;-47
2021/04/20 03:10:14;;;;;;;30.23;14.40;;;5.70;99.90;;;;;;5028298;28;20529;-47
2021/04/20 03:12:41;;;;;;;22.25;12.50;;;5.70;99.90;;;;;;5028023;28;20032;-47
2021/04/20 03:15:09;;;;;;;16.92;11.18;;;5.70;99.90;;;;;;5028594;28;20028;-49
2021/04/20 03:17:35;;;;;;;19.13;11.68;;;5.70;99.90;;;;;;5027384;28;20024;-46
2021/04/20 03:20:01;;;;;;;21.10;11.45;;;5.70;99.90;;;;;;5028171;28;20352;-49
2021/04/20 03:22:27;;;;;;;17.00;10.82;;;5.70;99.90;;;;;;5028096;28;20026;-47
2021/04/20 03:25:12;;;;;;;23.58;12.93;;;5.60;99.90;;;;;;5028259;28;20030;-46
2021/04/20 03:27:44;;;;;;;19.38;11.27;;;5.60;99.90;;;;;;5027596;28;20518;-47
2021/04/20 03:30:11;;;;;;;21.33;12.20;;;5.50;99.90;;;;;;5028146;28;20034;-47
2021/04/20 03:32:39;;;;;;;17.83;10.65;;;5.50;99.90;;;;;;5028106;28;20032;-46
2021/04/20 03:35:10;;;;;;;23.42;12.20;;;5.50;99.90;;;;;;5028228;28;20049;-45
2021/04/20 03:38:00;;;;;;;20.48;12.52;;;5.40;99.90;;;;;;5027637;28;20064;-46
2021/04/20 03:40:28;;;;;;;19.05;11.55;;;5.40;99.90;;;;;;5028304;28;20026;-46
2021/04/20 03:42:56;;;;;;;20.65;12.15;;;5.40;99.90;;;;;;5027462;28;20491;-45
2021/04/20 03:45:29;;;;;;;25.20;13.02;;;5.40;99.90;;;;;;5028319;28;20036;-47
2021/04/20 03:48:01;;;;;;;22.13;12.77;;;5.40;99.90;;;;;;5027477;28;20072;-49
2021/04/20 03:50:31;;;;;;;24.55;14.88;;;5.40;99.90;;;;;;5028549;28;20032;-47
2021/04/20 03:53:02;;;;;;;22.30;13.45;;;5.40;99.90;;;;;;5031713;28;20220;-47
2021/04/20 03:55:28;;;;;;;;;;;5.30;99.90;;;;;;5032083;28;20029;-48
2021/04/20 03:57:55;;;;;;;22.50;12.93;;;5.30;99.90;;;;;;5030932;28;20019;-48
2021/04/20 04:00:23;;;;;;;22.15;12.43;;;5.20;99.90;;;;;;5031520;28;20026;-47
2021/04/20 04:02:51;;;;;;;17.42;10.77;;;5.20;99.90;;;;;;5031268;28;20508;-50
2021/04/20 04:05:20;;;;;;;19.70;11.63;;;5.10;99.90;;;;;;5031421;28;20049;-47
2021/04/20 04:07:49;;;;;;;17.23;10.65;;;5.10;99.90;;;;;;5029306;28;20025;-47
2021/04/20 04:10:16;;;;;;;18.05;10.68;;;5.10;99.90;;;;;;5029997;28;20147;-47
2021/04/20 04:12:45;;;;;;;17.77;11.10;;;5.10;99.90;;;;;;5015546;28;20034;-48
2021/04/20 04:15:13;;;;;;;18.25;10.10;;;5.00;99.90;;;;;;5010185;28;20036;-46
2021/04/20 04:17:42;;;;;;;16.38;10.52;;;5.00;99.90;;;;;;5011011;28;20508;-48
2021/04/20 04:20:10;;;;;;;17.67;10.30;;;5.00;99.90;;;;;;5010341;28;20026;-45
2021/04/20 04:22:38;;;;;;;16.77;11.50;;;4.90;99.90;;;;;;5011464;28;20030;-46
2021/04/20 04:25:07;;;;;;;18.75;10.32;;;4.90;99.90;;;;;;5011496;28;20045;-47
2021/04/20 04:27:42;;;;;;;16.42;9.98;;;4.90;99.90;;;;;;5010629;28;20034;-49
2021/04/20 04:30:09;;;;;;;25.45;11.57;;;4.90;99.90;;;;;;5026410;28;20038;-49
2021/04/20 04:32:39;;;;;;;17.52;10.48;;;4.90;99.90;;;;;;5011159;28;20029;-45
2021/04/20 04:35:06;;;;;;;14.60;9.43;;;5.00;99.90;;;;;;5011136;28;20112;-46
2021/04/20 04:37:34;;;;;;;19.83;11.82;;;5.00;99.90;;;;;;5025710;28;20268;-46
2021/04/20 04:40:01;;;;;;;18.55;11.30;;;5.00;99.90;;;;;;5028848;28;20037;-46
2021/04/20 04:42:27;;;;;;;20.10;11.65;;;5.00;99.90;;;;;;5029581;28;20030;-48
2021/04/20 04:44:53;;;;;;;17.15;9.65;;;5.00;99.90;;;;;;5029812;28;20053;-47
2021/04/20 04:47:18;;;;;;;14.02;9.63;;;5.00;99.90;;;;;;5029588;28;20033;-50
2021/04/20 04:49:45;;;;;;;16.83;10.07;;;5.10;99.90;;;;;;5029459;28;20132;-47
2021/04/20 04:52:13;;;;;;;23.67;12.38;;;5.10;99.90;;;;;;5030285;28;20049;-47
2021/04/20 04:54:39;;;;;;;21.75;11.65;;;5.10;99.90;;;;;;5029933;28;20603;-45
2021/04/20 04:57:06;;;;;;;20.25;11.25;;;5.10;99.90;;;;;;5029959;28;20112;-46
2021/04/20 04:59:33;;;;;;;22.40;13.10;;;5.20;99.90;;;;;;5029148;28;20379;-46
2021/04/20 05:01:59;;;;;;;20.95;12.48;;;5.20;99.90;;;;;;5029503;28;20072;-49
2021/04/20 05:04:25;;;;;;;22.77;14.18;;;5.10;99.90;;;;;;5028681;28;20049;-47
2021/04/20 05:06:52;;;;;;;20.95;12.75;;;5.20;99.90;;;;;;5029588;28;20029;-47
2021/04/20 05:09:22;;;;;;;20.50;12.68;;;5.30;99.90;;;;;;5029504;28;20025;-49
2021/04/20 05:11:49;;;;;;;24.05;13.05;;;5.30;99.90;;;;;;5027377;28;20044;-47
2021/04/20 05:14:17;;;;;;;21.98;13.40;;;5.30;99.90;;;;;;5026933;28;20029;-47
2021/04/20 05:16:51;;;;;;;26.33;13.38;;;5.40;99.90;;;;;;5028940;28;20091;-47
2021/04/20 05:19:26;;;;;;;28.13;13.65;;;5.40;99.90;;;;;;5029396;28;20372;-48
2021/04/20 05:21:52;;;;;;;19.83;12.25;;;5.40;99.90;;;;;;5028090;28;20030;-48
2021/04/20 05:24:21;;;;;;;21.30;13.05;;;5.50;99.90;;;;;;5028517;28;20030;-48
2021/04/20 05:26:46;;;;;;;23.70;13.43;;;5.50;99.90;;;;;;5027631;28;20451;-46
2021/04/20 05:29:12;;;;;;;21.80;14.07;;;5.60;99.90;;;;;;5024153;28;20029;-46
2021/04/20 05:31:38;;;;;;;23.13;12.77;;;5.60;99.90;;;;;;5028789;28;20079;-46
2021/04/20 05:34:05;;;;;;;24.10;13.20;;;5.60;99.90;;;;;;5028055;28;20033;-46
2021/04/20 05:36:32;;;;;;;19.38;13.15;;;5.60;99.90;;;;;;5029085;28;20283;-47
2021/04/20 05:38:59;;;;;;;21.75;12.52;;;5.60;99.90;;;;;;5027925;28;20494;-50
2021/04/20 05:41:27;;;;;;;23.27;13.63;;;5.70;99.90;;;;;;5027582;28;20024;-47
2021/04/20 05:43:53;;;;;;;21.27;12.40;;;5.70;99.90;;;;;;5028672;28;20119;-50
2021/04/20 05:46:20;;;;;;;19.95;12.20;;;5.70;99.90;;;;;;5028013;28;20029;-47
2021/04/20 05:48:47;;;;;;;20.58;12.77;;;5.70;99.90;;;;;;5027881;28;20025;-48
2021/04/20 05:51:15;;;;;;;21.35;12.57;;;5.80;99.90;;;;;;5027059;28;20033;-47
2021/04/20 05:53:43;;;;;;;22.85;13.45;;;5.80;99.90;;;;;;5027917;28;20532;-49
2021/04/20 05:56:09;;;;;;;20.65;12.30;;;5.90;99.90;;;;;;5028425;28;20021;-47
2021/04/20 05:58:35;;;;;;;20.73;12.18;;;6.00;99.90;;;;;;5027773;28;20029;-47
2021/04/20 06:01:04;;;;;;;23.45;13.52;;;6.00;99.90;;;;;;5028323;28;20105;-46
2021/04/20 06:03:32;;;;;;;22.95;12.13;;;6.00;99.90;;;;;;5028262;28;20388;-47
2021/04/20 06:06:01;;;;;;;22.45;14.10;;;6.10;99.90;;;;;;5028402;28;20030;-46
2021/04/20 06:08:28;;;;;;;26.05;12.27;;;6.10;99.90;;;;;;5027353;28;20017;-49
2021/04/20 06:10:54;;;;;;;22.33;13.40;;;6.20;99.90;;;;;;5028214;28;20033;-47
2021/04/20 06:13:19;;;;;;;20.88;12.43;;;6.20;99.90;;;;;;5025384;28;20183;-47
2021/04/20 06:15:45;;;;;;;19.35;11.68;;;6.20;99.90;;;;;;5028256;28;20022;-47
2021/04/20 06:18:11;;;;;;;19.50;11.25;;;6.20;99.90;;;;;;5028192;28;20029;-47
2021/04/20 06:20:38;;;;;;;24.23;11.35;;;6.30;99.90;;;;;;5027795;28;20102;-48
2021/04/20 06:23:05;;;;;;;22.77;11.50;;;6.40;99.90;;;;;;5026810;28;20026;-47
2021/04/20 06:25:32;;;;;;;20.45;12.55;;;6.50;99.90;;;;;;5026866;28;20068;-46
2021/04/20 06:27:58;;;;;;;20.17;12.45;;;6.50;99.90;;;;;;5024471;28;20064;-46
2021/04/20 06:30:24;;;;;;;23.70;12.18;;;6.60;99.90;;;;;;5026278;28;20028;-46
2021/04/20 06:32:50;;;;;;;17.40;10.65;;;6.60;99.90;;;;;;5026576;28;20037;-47
2021/04/20 06:35:18;;;;;;;21.05;10.90;;;6.60;99.90;;;;;;5027802;28;20068;-50
2021/04/20 06:37:46;;;;;;;16.88;10.48;;;6.70;99.90;;;;;;5027152;28;20039;-49
2021/04/20 06:40:26;;;;;;;23.88;11.55;;;6.70;99.90;;;;;;5028160;28;20057;-48
2021/04/20 06:42:56;;;;;;;;;;;6.80;99.90;;;;;;5026916;28;20443;-47
2021/04/20 06:45:44;;;;;;;22.42;11.82;;;6.90;99.90;;;;;;5027996;28;19909;-48
2021/04/20 06:48:15;;;;;;;17.77;10.43;;;6.90;99.90;;;;;;5022613;28;20510;-48
2021/04/20 06:50:43;;;;;;;20.65;10.65;;;7.00;99.90;;;;;;5022219;28;20083;-49
2021/04/20 06:53:17;;;;;;;20.23;10.98;;;7.10;99.90;;;;;;5027278;28;20048;-47
2021/04/20 06:56:09;;;;;;;21.98;10.48;;;7.20;99.90;;;;;;5025704;28;20080;-50
2021/04/20 06:58:57;;;;;;;17.75;10.70;;;7.20;99.90;;;;;;5023598;28;20021;-48
2021/04/20 07:01:45;;;;;;;24.23;10.90;;;7.20;99.90;;;;;;5027928;28;20466;-47
2021/04/20 07:04:48;;;;;;;19.15;10.93;;;7.30;99.90;;;;;;5027709;28;20071;-47
2021/04/20 07:07:43;;;;;;;18.48;10.63;;;7.40;99.90;;;;;;5026340;28;20048;-47
2021/04/20 07:10:24;;;;;;;20.67;10.60;;;7.50;99.90;;;;;;5018046;28;20418;-47
2021/04/20 07:12:56;;;;;;;17.85;9.82;;;7.60;99.90;;;;;;5023020;28;20037;-48
2021/04/20 07:15:25;;;;;;;22.85;11.38;;;7.70;99.90;;;;;;5026377;28;20124;-47
2021/04/20 07:18:13;;;;;;;17.25;9.88;;;7.80;99.90;;;;;;5025627;28;20025;-48
2021/04/20 07:20:59;;;;;;;16.02;10.18;;;7.90;99.90;;;;;;5027789;28;20040;-50
2021/04/20 07:23:47;;;;;;;15.98;9.90;;;8.00;99.90;;;;;;5027660;28;20172;-47
2021/04/20 07:26:50;;;;;;;22.55;11.38;;;8.20;99.90;;;;;;5031527;28;20045;-49
2021/04/20 07:29:22;;;;;;;24.40;10.50;;;8.30;99.90;;;;;;5027685;28;20029;-48
2021/04/20 07:32:22;;;;;;;20.67;10.40;;;8.30;99.90;;;;;;5027452;28;20471;-49
2021/04/20 07:35:19;;;;;;;24.02;12.90;;;8.50;99.90;;;;;;5028837;28;20018;-49
2021/04/20 07:37:55;;;;;;;23.88;12.02;;;8.60;99.90;;;;;;5029680;28;20052;-48
2021/04/20 07:40:35;;;;;;;23.98;12.52;;;8.80;99.90;;;;;;5031390;28;20103;-47
2021/04/20 07:43:29;;;;;;;25.05;12.05;;;9.00;99.90;;;;;;5030148;28;20030;-47
2021/04/20 07:46:20;;;;;;;22.70;11.18;;;9.30;99.90;;;;;;5030811;28;20040;-48
2021/04/20 07:49:06;;;;;;;17.10;10.95;;;9.40;99.90;;;;;;5030762;28;20021;-48
2021/04/20 07:51:44;;;;;;;20.95;11.70;;;9.60;99.90;;;;;;5029938;28;20035;-48
2021/04/20 07:54:14;;;;;;;20.15;10.43;;;9.70;99.90;;;;;;5030741;28;20519;-47
2021/04/20 07:56:51;;;;;;;20.40;10.23;;;9.90;99.90;;;;;;5029686;28;20030;-50
2021/04/20 07:59:30;;;;;;;21.75;11.23;;;10.30;99.90;;;;;;5030441;28;20096;-47
2021/04/20 08:02:04;;;;;;;16.42;9.75;;;11.20;99.90;;;;;;5030426;28;20044;-51
2021/04/20 08:04:35;;;;;;;12.63;8.25;;;12.30;99.90;;;;;;5030293;28;20112;-48
2021/04/20 08:07:16;;;;;;;17.67;8.82;;;13.70;99.90;;;;;;5029994;28;20032;-51
2021/04/20 08:09:42;;;;;;;;;;;15.30;95.30;;;;;;5030361;28;20105;-51
2021/04/20 08:12:17;;;;;;;15.90;10.50;;;15.80;91.00;;;;;;5031018;28;19909;-52
2021/04/20 08:14:54;;;;;;;16.85;9.70;;;16.70;77.80;;;;;;5030618;28;20041;-51
2021/04/20 08:17:40;;;;;;;20.40;10.77;;;17.60;78.90;;;;;;5030376;28;20021;-52
2021/04/20 08:20:12;;;;;;;11.35;7.38;;;18.70;72.10;;;;;;5030421;28;20032;-53
2021/04/20 08:22:38;;;;;;;15.75;9.77;;;19.60;67.60;;;;;;5024076;28;20052;-53
2021/04/20 08:25:12;;;;;;;12.98;7.75;;;19.60;62.40;;;;;;5030227;28;20441;-52
2021/04/20 08:28:15;;;;;;;14.82;8.38;;;20.10;62.00;;;;;;5029076;28;20112;-50
2021/04/20 08:30:52;;;;;;;13.75;7.18;;;21.40;56.50;;;;;;5028899;28;20040;-51
2021/04/20 08:33:23;;;;;;;17.52;6.97;;;22.50;54.40;;;;;;5028068;28;20099;-51
2021/04/20 08:35:51;;;;;;;11.00;7.47;;;23.10;52.80;;;;;;5029528;28;20033;-52
2021/04/20 08:38:38;;;;;;;13.00;7.15;;;23.70;50.00;;;;;;5029598;28;20033;-52
2021/04/20 08:41:20;;;;;;;8.95;6.88;;;23.70;51.80;;;;;;5030058;28;20065;-52
2021/04/20 08:43:59;;;;;;;10.75;7.35;;;24.20;47.60;;;;;;5010204;28;20026;-52
2021/04/20 08:46:48;;;;;;;11.77;7.15;;;24.40;47.20;;;;;;5010598;28;20025;-52
2021/04/20 08:49:39;;;;;;;13.80;6.70;;;25.10;45.50;;;;;;5009890;28;20037;-52
2021/04/20 08:52:45;;;;;;;12.45;7.75;;;25.40;45.50;;;;;;5022984;28;20044;-52
2021/04/20 08:55:29;;;;;;;11.25;7.57;;;25.60;44.80;;;;;;5028291;28;20072;-52
2021/04/20 08:58:18;;;;;;;13.40;7.38;;;24.80;46.00;;;;;;5027021;28;20030;-52
2021/04/20 09:00:53;;;;;;;14.85;8.52;;;25.70;45.00;;;;;;5029471;28;20033;-52
2021/04/20 09:03:51;;;;;;;12.70;7.90;;;24.80;43.90;;;;;;5030417;28;20068;-54
2021/04/20 09:06:32;;;;;;;9.52;6.60;;;24.80;44.30;;;;;;5029640;28;20075;-56
2021/04/20 09:09:07;;;;;;;10.68;7.43;;;24.80;46.30;;;;;;5028704;28;20065;-53
2021/04/20 09:11:48;;;;;;;14.55;7.10;;;24.90;45.80;;;;;;5027303;28;20025;-52
2021/04/20 09:14:25;;;;;;;12.77;7.07;;;25.70;44.10;;;;;;5024059;28;20029;-54
2021/04/20 09:16:59;;;;;;;9.88;5.72;;;26.50;42.60;;;;;;5029767;28;20024;-53
2021/04/20 09:19:47;;;;;;;13.55;8.00;;;26.50;42.40;;;;;;5028607;28;20111;-54
2021/04/20 09:22:24;;;;;;;9.95;6.85;;;25.60;42.50;;;;;;5028734;28;20029;-53
2021/04/20 09:25:05;;;;;;;14.15;6.80;;;26.10;43.50;;;;;;5028239;28;20029;-54
2021/04/20 09:28:00;;;;;;;12.32;6.57;;;25.90;42.80;;;;;;5028451;28;20466;-53
2021/04/20 09:30:33;;;;;;;10.02;6.50;;;27.00;42.60;;;;;;5033465;28;20051;-52
2021/04/20 09:33:07;;;;;;;9.80;6.63;;;26.90;40.90;;;;;;5029464;28;20439;-52
2021/04/20 09:35:35;;;;;;;10.80;7.03;;;27.20;42.10;;;;;;5029825;28;20100;-53
2021/04/20 09:38:02;;;;;;;11.38;6.55;;;27.90;40.00;;;;;;5027956;28;20022;-53
2021/04/20 09:40:30;;;;;;;13.35;6.60;;;28.20;40.30;;;;;;5028558;28;20064;-53
2021/04/20 09:43:24;;;;;;;8.63;6.03;;;28.10;40.10;;;;;;5027863;28;20077;-53
2021/04/20 09:45:55;;;;;;;12.23;6.18;;;28.50;38.10;;;;;;5025897;28;20037;-53
2021/04/20 09:48:38;;;;;;;10.02;7.50;;;28.20;40.80;;;;;;5026877;28;20422;-53
2021/04/20 09:51:12;;;;;;;11.63;6.15;;;27.20;39.40;;;;;;5028449;28;20487;-53
2021/04/20 09:53:52;;;;;;;11.93;7.07;;;27.50;39.60;;;;;;5027839;28;20056;-54
2021/04/20 09:56:41;;;;;;;10.18;5.97;;;27.30;38.50;;;;;;5027297;28;20029;-52
2021/04/20 09:59:12;;;;;;;11.98;6.53;;;27.10;41.90;;;;;;5027903;28;20056;-53
2021/04/20 10:01:57;;;;;;;12.95;6.65;;;27.70;41.10;;;;;;5028099;28;20041;-52
2021/04/20 10:04:41;;;;;;;7.82;5.65;;;27.60;39.40;;;;;;5027491;28;20631;-52
2021/04/20 10:07:29;;;;;;;7.53;5.03;;;27.80;42.10;;;;;;5028070;28;20021;-53
2021/04/20 10:10:02;;;;;;;12.32;6.82;;;27.80;38.80;;;;;;5027143;28;20036;-53
2021/04/20 10:13:06;;;;;;;8.02;5.63;;;28.40;38.80;;;;;;5026231;28;20065;-53
2021/04/20 10:15:39;;;;;;;9.93;5.65;;;28.60;38.60;;;;;;5026919;28;20037;-53
2021/04/20 10:18:23;;;;;;;13.02;6.35;;;28.80;37.20;;;;;;5027391;28;20055;-55
2021/04/20 10:21:29;;;;;;;10.48;5.53;;;29.30;37.60;;;;;;5026711;28;20033;-53
2021/04/20 10:24:03;;;;;;;14.23;6.97;;;29.70;37.80;;;;;;5027764;28;20572;-54
2021/04/20 10:26:41;;;;;;;9.90;6.28;;;29.40;35.90;;;;;;5027769;28;20037;-53
2021/04/20 10:29:17;;;;;;;13.40;6.65;;;29.20;38.30;;;;;;5025501;28;20494;-53
2021/04/20 10:31:53;;;;;;;12.30;6.75;;;29.70;37.90;;;;;;5027328;28;20045;-52
2021/04/20 10:34:19;;;;;;;9.52;6.35;;;28.60;37.90;;;;;;5025718;28;20037;-53
2021/04/20 10:36:53;;;;;;;12.05;6.38;;;28.70;37.40;;;;;;5024752;28;20087;-53
2021/04/20 10:39:22;;;;;;;7.93;5.97;;;29.00;37.60;;;;;;5022711;28;20120;-54
2021/04/20 10:41:49;;;;;;;5.93;5.27;;;29.20;37.60;;;;;;5026449;28;20434;-53
2021/04/20 10:44:17;;;;;;;10.07;5.30;;;29.60;36.50;;;;;;5026071;28;20116;-54
2021/04/20 10:46:49;;;;;;;11.20;5.90;;;29.60;35.30;;;;;;5027708;28;20045;-53
2021/04/20 10:49:16;;;;;;;13.45;6.63;;;29.30;38.60;;;;;;5027703;28;20026;-53
2021/04/20 10:51:44;;;;;;;10.43;6.55;;;29.60;35.10;;;;;;5027882;28;20108;-52
2021/04/20 10:54:11;;;;;;;12.77;6.03;;;28.90;36.50;;;;;;5027476;28;20645;-52
2021/04/20 10:56:45;;;;;;;11.93;6.03;;;29.50;36.90;;;;;;5028133;28;20052;-53
2021/04/20 10:59:27;;;;;;;13.60;5.68;;;29.40;36.00;;;;;;5028470;28;20388;-54
2021/04/20 11:01:55;;;;;;;12.40;6.43;;;29.20;37.00;;;;;;5032079;28;20048;-52
2021/04/20 11:04:23;;;;;;;5.90;4.70;;;27.60;36.70;;;;;;5031677;28;20035;-52
2021/04/20 11:07:11;;;;;;;8.52;4.90;;;27.20;37.50;;;;;;5032135;28;20096;-52
2021/04/20 11:09:37;;;;;;;16.58;6.07;;;28.40;36.80;;;;;;5031167;28;20025;-53
2021/04/20 11:12:19;;;;;;;9.50;5.88;;;28.30;36.00;;;;;;5029496;28;20033;-53
2021/04/20 11:14:50;;;;;;;9.48;5.10;;;29.40;33.20;;;;;;5021604;28;20038;-52
2021/04/20 11:17:32;;;;;;;9.45;5.10;;;29.20;35.10;;;;;;5031234;28;20024;-53
2021/04/20 11:20:04;;;;;;;7.72;4.90;;;29.30;36.60;;;;;;5032110;28;20040;-53
2021/04/20 11:22:37;;;;;;;10.13;5.63;;;29.30;35.30;;;;;;5030705;28;20038;-54
2021/04/20 11:25:10;;;;;;;10.18;5.72;;;29.10;35.40;;;;;;5031184;28;20113;-54
2021/04/20 11:27:40;;;;;;;11.90;5.28;;;29.10;35.50;;;;;;5030174;28;20049;-53
2021/04/20 11:30:14;;;;;;;12.73;4.72;;;29.20;36.70;;;;;;5031592;28;20395;-54
2021/04/20 11:32:51;;;;;;;11.20;4.93;;;29.50;34.60;;;;;;5031341;28;20057;-52
2021/04/20 11:35:20;;;;;;;8.32;4.75;;;28.90;34.70;;;;;;5030494;28;20032;-52
2021/04/20 11:37:49;;;;;;;9.20;5.40;;;28.70;34.70;;;;;;5029275;28;20040;-53
2021/04/20 11:40:24;;;;;;;14.63;5.53;;;29.20;35.70;;;;;;5030954;28;20105;-53
2021/04/20 11:42:51;;;;;;;9.50;5.60;;;28.90;35.40;;;;;;5029587;28;20144;-53
2021/04/20 11:45:23;;;;;;;11.23;5.93;;;29.30;35.50;;;;;;5030261;28;20560;-54
2021/04/20 11:48:11;;;;;;;7.80;5.10;;;29.00;34.70;;;;;;5030894;28;20045;-54
2021/04/20 11:50:39;;;;;;;8.32;4.97;;;28.90;37.10;;;;;;5030374;28;20426;-53
2021/04/20 11:53:08;;;;;;;8.50;5.20;;;29.30;36.10;;;;;;5030801;28;20047;-53
2021/04/20 11:55:42;;;;;;;11.85;4.90;;;29.50;34.80;;;;;;5029917;28;20025;-52
2021/04/20 11:58:12;;;;;;;15.13;5.47;;;29.80;34.50;;;;;;5027777;28;20049;-53
2021/04/20 12:00:40;;;;;;;;;;;29.30;36.90;;;;;;5030977;28;20479;-52
2021/04/20 12:03:11;;;;;;;11.95;5.25;;;28.20;34.00;;;;;;5028045;28;19909;-54
2021/04/20 12:05:39;;;;;;;11.32;5.72;;;27.60;37.00;;;;;;5028313;28;20116;-52
2021/04/20 12:08:06;;;;;;;9.88;5.70;;;27.40;36.90;;;;;;5030090;28;20025;-52
2021/04/20 12:10:32;;;;;;;12.77;6.20;;;27.40;37.20;;;;;;5029505;28;20152;-52
2021/04/20 12:12:59;;;;;;;11.35;6.15;;;27.40;39.10;;;;;;5030219;28;20041;-52
2021/04/20 12:15:26;;;;;;;13.32;6.63;;;26.20;40.50;;;;;;5027512;28;20074;-52
2021/04/20 12:17:53;;;;;;;8.20;5.53;;;25.80;38.90;;;;;;5030161;28;20030;-52
2021/04/20 12:20:23;;;;;;;12.10;5.38;;;25.80;39.10;;;;;;5030911;28;20494;-52
2021/04/20 12:22:55;;;;;;;11.40;5.80;;;25.70;39.50;;;;;;5030579;28;20029;-52
2021/04/20 12:25:21;;;;;;;11.13;5.72;;;25.60;40.10;;;;;;5030454;28;20025;-52
2021/04/20 12:27:58;;;;;;;10.45;6.40;;;24.30;43.20;;;;;;5029151;28;20017;-52
2021/04/20 12:30:25;;;;;;;12.70;6.47;;;23.90;42.40;;;;;;5029801;28;20558;-50
2021/04/20 12:32:52;;;;;;;10.93;6.13;;;24.10;41.80;;;;;;5030059;28;20177;-51
2021/04/20 12:35:30;;;;;;;12.43;6.30;;;23.80;43.00;;;;;;5027178;28;20025;-51
2021/04/20 12:38:01;;;;;;;9.38;6.07;;;23.70;42.60;;;;;;5026426;28;20037;-48
2021/04/20 12:40:27;;;;;;;;;;;23.60;42.80;;;;;;5030078;28;20026;-49
2021/04/20 12:42:59;;;;;;;12.02;6.10;;;23.80;44.80;;;;;;5028604;28;19916;-47
2021/04/20 12:45:35;;;;;;;14.30;5.53;;;23.60;43.60;;;;;;5029670;28;20030;-46
2021/04/20 12:48:01;;;;;;;11.57;6.13;;;23.30;45.80;;;;;;5028998;28;20026;-47
2021/04/20 12:50:36;;;;;;;11.30;6.28;;;23.30;45.20;;;;;;5030219;28;20028;-49
2021/04/20 12:53:05;;;;;;;12.45;6.50;;;23.10;43.10;;;;;;5028267;28;20025;-46
2021/04/20 12:55:33;;;;;;;19.27;7.22;;;23.00;42.60;;;;;;5028990;28;20029;-46
2021/04/20 12:58:07;;;;;;;12.18;6.35;;;22.20;43.80;;;;;;5028260;28;20399;-47
2021/04/20 13:00:35;;;;;;;12.77;5.75;;;22.30;46.10;;;;;;5029186;28;20041;-48
2021/04/20 13:03:02;;;;;;;18.58;6.50;;;22.50;45.90;;;;;;5029277;28;20021;-46
2021/04/20 13:05:33;;;;;;;10.15;4.90;;;22.80;47.50;;;;;;5029140;28;20152;-47